Time;durP1;ratioP1;P1;durP2;ratioP2;P2;SDS_P1;SDS_P2;PMS_P1;PMS_P2;Temp;Humidity;BMP_temperature;BMP_pressure;BME280_temperature;BME280_humidity;BME280_pressure;Samples;Min_cycle;Max_cycle;Signal;HPM_P1;HPM_P2
2022/11/09 00:01:18;;;;;;;21.00;14.30;;;;;;;6.53;52.11;101409.30;105967;1304;22023;-63
2022/11/09 00:03:44;;;;;;;22.20;15.10;;;;;;;6.47;52.01;101408.14;105836;1304;21957;-63
2022/11/09 00:06:10;;;;;;;27.50;17.70;;;;;;;6.43;51.84;101405.77;105929;1296;21970;-63
2022/11/09 00:08:37;;;;;;;26.40;17.10;;;;;;;6.36;51.86;101405.11;105932;1305;23638;-63
2022/11/09 00:11:07;;;;;;;23.30;15.70;;;;;;;6.28;51.72;101403.19;105913;1306;23093;-64
2022/11/09 00:13:40;;;;;;;22.80;15.80;;;;;;;6.19;51.42;101404.23;107733;1304;22008;-63
2022/11/09 00:16:08;;;;;;;22.40;15.50;;;;;;;6.12;51.70;101403.38;105999;1304;22045;-64
2022/11/09 00:18:35;;;;;;;23.60;15.20;;;;;;;6.05;51.72;101406.70;106186;1304;21885;-62
2022/11/09 00:21:11;;;;;;;20.40;13.30;;;;;;;6.01;51.96;101412.20;106144;1305;23751;-62
2022/11/09 00:23:37;;;;;;;17.40;12.30;;;;;;;5.99;52.05;101417.86;105969;1302;21968;-64
2022/11/09 00:26:05;;;;;;;17.70;12.10;;;;;;;5.95;52.01;101415.52;105921;1305;21966;-64
2022/11/09 00:28:32;;;;;;;16.30;12.00;;;;;;;5.94;52.12;101416.36;106073;1304;22008;-63
2022/11/09 00:31:02;;;;;;;16.00;11.20;;;;;;;5.93;52.05;101415.82;105956;1304;21959;-64
2022/11/09 00:33:31;;;;;;;14.80;10.10;;;;;;;5.93;52.22;101417.36;105961;1306;21964;-64
2022/11/09 00:35:58;;;;;;;13.70;10.00;;;;;;;5.93;52.22;101418.27;105955;1306;21964;-64
2022/11/09 00:38:23;;;;;;;10.30;7.80;;;;;;;5.97;52.44;101417.28;105926;1306;21972;-62
2022/11/09 00:40:49;;;;;;;8.30;6.00;;;;;;;6.01;52.49;101415.47;105924;1304;21963;-62
2022/11/09 00:43:15;;;;;;;9.80;7.20;;;;;;;6.06;52.22;101414.73;105922;1305;21954;-62
2022/11/09 00:45:41;;;;;;;11.80;8.30;;;;;;;6.08;52.31;101412.17;105940;1304;21977;-62
2022/11/09 00:48:07;;;;;;;11.60;8.70;;;;;;;6.04;52.17;101411.04;105259;1304;1002392;-62
2022/11/09 00:50:33;;;;;;;12.60;9.50;;;;;;;5.97;51.85;101407.88;106011;1306;21967;-62
2022/11/09 00:52:59;;;;;;;12.60;9.10;;;;;;;5.91;51.75;101406.88;105943;1306;22090;-62
2022/11/09 00:55:25;;;;;;;12.80;8.90;;;;;;;5.85;51.80;101408.48;106014;1304;21963;-62
2022/11/09 00:57:51;;;;;;;13.20;9.20;;;;;;;5.79;51.83;101410.60;105931;1305;21965;-62
2022/11/09 01:00:18;;;;;;;12.80;8.80;;;;;;;5.73;51.85;101410.11;106040;1305;21967;-65
2022/11/09 01:02:44;;;;;;;14.10;9.30;;;;;;;5.70;52.03;101407.96;106094;1304;23093;-62
2022/11/09 01:05:10;;;;;;;12.50;8.60;;;;;;;5.67;52.21;101407.52;105809;1306;21964;-62
2022/11/09 01:07:36;;;;;;;12.00;8.10;;;;;;;5.64;52.21;101408.52;105930;1304;21969;-64
2022/11/09 01:10:03;;;;;;;9.30;6.80;;;;;;;5.62;52.27;101406.53;107809;1305;21972;-62
2022/11/09 01:12:29;;;;;;;10.20;7.10;;;;;;;5.59;52.08;101409.60;107899;1305;21792;-66
2022/11/09 01:14:57;;;;;;;13.60;7.10;;;;;;;5.55;51.96;101410.55;107028;1304;21836;-63
2022/11/09 01:17:23;;;;;;;9.40;6.60;;;;;;;5.52;52.34;101409.95;107933;1306;21759;-65
2022/11/09 01:19:49;;;;;;;8.50;5.90;;;;;;;5.51;52.50;101410.45;107934;1306;22610;-65
2022/11/09 01:22:16;;;;;;;9.60;5.80;;;;;;;5.53;52.37;101410.48;106592;1306;1002180;-64
2022/11/09 01:24:42;;;;;;;9.50;6.10;;;;;;;5.56;52.39;101411.61;107128;1306;24379;-64
2022/11/09 01:27:08;;;;;;;9.10;6.40;;;;;;;5.58;52.60;101418.96;105761;1305;21967;-65
2022/11/09 01:29:36;;;;;;;9.40;6.20;;;;;;;5.60;52.56;101422.84;105913;1304;21961;-63
2022/11/09 01:32:02;;;;;;;10.40;6.10;;;;;;;5.61;52.22;101422.52;105970;1306;21969;-62
2022/11/09 01:34:28;;;;;;;11.40;7.70;;;;;;;5.62;52.36;101421.33;106037;1305;21967;-64
2022/11/09 01:36:54;;;;;;;10.50;6.00;;;;;;;5.62;52.28;101419.27;105972;1304;21968;-63
2022/11/09 01:39:20;;;;;;;7.30;5.60;;;;;;;5.65;52.10;101420.71;106044;1301;21967;-64
2022/11/09 01:41:46;;;;;;;8.60;5.90;;;;;;;5.68;52.60;101423.73;106053;1304;21970;-64
2022/11/09 01:44:12;;;;;;;10.00;6.90;;;;;;;5.69;52.61;101430.41;105957;1304;21970;-64
2022/11/09 01:46:39;;;;;;;14.80;10.20;;;;;;;5.68;52.38;101434.04;106001;1301;22007;-63
2022/11/09 01:49:11;;;;;;;14.00;9.40;;;;;;;5.65;52.21;101437.60;105998;1304;21950;-63
2022/11/09 01:51:39;;;;;;;13.10;8.40;;;;;;;5.60;52.04;101442.53;106027;1305;22191;-63
2022/11/09 01:54:20;;;;;;;13.00;8.30;;;;;;;5.59;52.18;101448.42;106013;1306;21968;-62
2022/11/09 01:56:47;;;;;;;13.40;8.20;;;;;;;5.63;52.12;101448.86;105829;1306;21978;-64
2022/11/09 01:59:22;;;;;;;11.50;8.20;;;;;;;5.66;52.15;101454.36;105829;1306;21973;-63
2022/11/09 02:01:47;;;;;;;13.20;8.50;;;;;;;5.67;52.56;101454.38;105794;1306;21966;-64
2022/11/09 02:04:18;;;;;;;12.60;8.90;;;;;;;5.70;52.50;101456.02;105702;1304;21960;-65
2022/11/09 02:06:43;;;;;;;14.20;9.60;;;;;;;5.72;52.45;101453.99;106100;1304;23216;-63
2022/11/09 02:09:14;;;;;;;12.20;9.00;;;;;;;5.74;52.50;101452.10;105805;1306;21962;-64
2022/11/09 02:11:40;;;;;;;;;;;;;;;5.75;52.45;101448.63;105924;1305;21942;-63
2022/11/09 02:14:06;;;;;;;14.30;8.60;;;;;;;5.77;52.63;101446.95;105921;1306;22016;-63
2022/11/09 02:16:31;;;;;;;13.30;8.70;;;;;;;5.79;52.56;101444.91;106062;1304;21961;-64
2022/11/09 02:18:59;;;;;;;12.10;8.30;;;;;;;5.81;52.57;101442.36;105872;1306;21966;-63
2022/11/09 02:21:27;;;;;;;11.20;7.50;;;;;;;5.85;52.63;101439.13;106061;1305;21978;-65
2022/11/09 02:23:53;;;;;;;17.00;9.20;;;;;;;5.87;52.84;101437.08;105318;1304;1001954;-63
2022/11/09 02:26:27;;;;;;;19.50;10.60;;;;;;;5.88;52.67;101437.13;105742;1305;21971;-64
2022/11/09 02:28:54;;;;;;;23.50;10.90;;;;;;;5.90;52.84;101434.72;105205;1305;1003232;-63
2022/11/09 02:31:19;;;;;;;22.80;11.20;;;;;;;5.90;52.79;101437.00;105794;1306;21977;-63
2022/11/09 02:33:54;;;;;;;14.60;9.10;;;;;;;5.90;52.47;101440.84;105711;1306;21984;-64
2022/11/09 02:36:22;;;;;;;15.90;9.30;;;;;;;5.84;52.56;101444.32;106004;1306;21965;-64
2022/11/09 02:38:48;;;;;;;10.80;6.90;;;;;;;5.74;52.55;101442.55;106045;1304;21958;-63
2022/11/09 02:41:14;;;;;;;9.40;5.70;;;;;;;5.68;52.49;101442.20;105975;1306;21968;-62
2022/11/09 02:43:40;;;;;;;7.00;4.90;;;;;;;5.60;52.58;101444.08;105754;1306;21957;-64
2022/11/09 02:46:06;;;;;;;5.30;3.30;;;;;;;5.50;52.74;101445.41;105823;1306;21969;-64
2022/11/09 02:48:31;;;;;;;5.10;2.70;;;;;;;5.43;52.55;101447.67;105968;1306;21947;-64
2022/11/09 02:50:57;;;;;;;3.80;2.40;;;;;;;5.39;52.63;101442.52;105970;1306;22029;-64
2022/11/09 02:53:23;;;;;;;4.50;2.90;;;;;;;5.39;52.89;101442.86;105950;1304;21975;-64
2022/11/09 02:55:49;;;;;;;5.90;3.90;;;;;;;5.38;52.90;101447.38;105959;1302;21975;-63
2022/11/09 02:58:15;;;;;;;5.40;3.90;;;;;;;5.40;53.00;101447.92;105996;1304;22106;-63
2022/11/09 03:00:42;;;;;;;5.30;3.40;;;;;;;5.37;52.62;101447.88;106030;1305;21960;-64
2022/11/09 03:03:08;;;;;;;4.40;3.10;;;;;;;5.36;52.62;101447.84;106000;1306;21968;-65
2022/11/09 03:05:34;;;;;;;4.80;2.60;;;;;;;5.34;52.85;101445.70;105791;1306;21969;-64
2022/11/09 03:08:01;;;;;;;6.30;3.50;;;;;;;5.30;52.85;101442.63;105797;1306;21954;-63
2022/11/09 03:10:27;;;;;;;5.60;3.60;;;;;;;5.27;52.83;101445.88;105304;1304;1002413;-63
2022/11/09 03:12:53;;;;;;;6.00;4.00;;;;;;;5.28;52.55;101445.19;105983;1306;21968;-64
2022/11/09 03:15:21;;;;;;;6.00;3.70;;;;;;;5.21;52.69;101438.74;106043;1306;21963;-63
2022/11/09 03:17:48;;;;;;;9.60;3.80;;;;;;;5.14;52.63;101435.58;105923;1306;21967;-65
2022/11/09 03:20:14;;;;;;;7.50;3.60;;;;;;;5.07;52.45;101433.50;106220;1304;21936;-64
2022/11/09 03:22:41;;;;;;;7.20;3.50;;;;;;;5.01;52.43;101431.59;106071;1304;21971;-63
2022/11/09 03:25:08;;;;;;;7.70;4.00;;;;;;;4.95;52.54;101428.51;105889;1305;21965;-63
2022/11/09 03:27:35;;;;;;;9.50;5.10;;;;;;;4.95;52.41;101431.95;106041;1306;21973;-63
2022/11/09 03:30:01;;;;;;;7.90;4.90;;;;;;;4.95;52.86;101431.95;105898;1304;22000;-63
2022/11/09 03:32:28;;;;;;;8.70;4.60;;;;;;;4.96;52.81;101427.27;105888;1306;21965;-64
2022/11/09 03:34:53;;;;;;;6.90;5.00;;;;;;;4.97;52.79;101426.45;103715;1306;1003169;-63
2022/11/09 03:37:19;;;;;;;6.50;4.20;;;;;;;5.00;52.86;101423.23;107264;1304;21825;-65
2022/11/09 03:39:45;;;;;;;6.10;3.10;;;;;;;5.06;53.03;101417.11;107907;1306;21924;-63
2022/11/09 03:42:11;;;;;;;6.00;3.70;;;;;;;5.14;53.13;101417.86;107922;1306;21830;-63
2022/11/09 03:44:40;;;;;;;7.30;5.10;;;;;;;5.22;52.99;101420.49;107648;1305;22008;-64
2022/11/09 03:47:07;;;;;;;10.50;6.80;;;;;;;5.21;52.83;101415.79;105904;1306;21962;-63
2022/11/09 03:49:33;;;;;;;8.30;5.20;;;;;;;5.18;52.67;101411.85;105941;1306;21932;-64
2022/11/09 03:51:59;;;;;;;11.50;5.30;;;;;;;5.17;52.78;101412.19;105923;1304;22055;-64
2022/11/09 03:54:25;;;;;;;11.30;7.30;;;;;;;5.20;52.94;101412.28;105968;1306;21963;-63
2022/11/09 03:56:51;;;;;;;11.70;7.10;;;;;;;5.23;52.87;101415.30;105925;1303;21968;-64
2022/11/09 03:59:17;;;;;;;14.70;8.10;;;;;;;5.22;52.35;101417.17;105962;1306;22071;-64
2022/11/09 04:01:43;;;;;;;11.30;7.60;;;;;;;5.20;52.50;101419.92;106021;1305;21996;-63
2022/11/09 04:04:08;;;;;;;13.50;7.80;;;;;;;5.16;52.64;101420.70;105888;1306;21966;-62
2022/11/09 04:06:35;;;;;;;13.50;8.60;;;;;;;5.16;52.48;101421.03;105194;1301;1003127;-64
2022/11/09 04:09:00;;;;;;;14.30;9.50;;;;;;;5.15;52.39;101424.32;105963;1304;21957;-64
2022/11/09 04:11:26;;;;;;;10.00;6.10;;;;;;;5.13;52.40;101424.95;105865;1306;21965;-64
2022/11/09 04:13:53;;;;;;;8.20;4.20;;;;;;;5.08;52.55;101424.14;105932;1306;21980;-62
2022/11/09 04:16:19;;;;;;;6.00;3.60;;;;;;;5.02;52.69;101427.27;105981;1297;21959;-63
2022/11/09 04:18:46;;;;;;;5.40;3.00;;;;;;;4.99;52.66;101435.55;106005;1306;22005;-64
2022/11/09 04:21:14;;;;;;;3.80;2.10;;;;;;;5.01;53.05;101434.56;105943;1306;21967;-63
2022/11/09 04:23:40;;;;;;;3.60;2.10;;;;;;;5.03;52.98;101436.17;105765;1306;22007;-63
2022/11/09 04:26:06;;;;;;;3.90;1.90;;;;;;;5.05;52.88;101435.00;106054;1306;21969;-64
2022/11/09 04:28:32;;;;;;;4.40;2.10;;;;;;;5.06;53.01;101437.67;105946;1306;21963;-63
2022/11/09 04:30:59;;;;;;;4.50;2.20;;;;;;;5.06;52.81;101444.62;106194;1300;21992;-64
2022/11/09 04:33:25;;;;;;;7.60;3.00;;;;;;;5.04;53.01;101448.04;106078;1306;24314;-65
2022/11/09 04:35:51;;;;;;;4.30;2.80;;;;;;;4.99;52.86;101453.48;105929;1306;21971;-63
2022/11/09 04:38:16;;;;;;;3.70;2.40;;;;;;;4.95;52.77;101457.00;105997;1304;21976;-64
2022/11/09 04:40:42;;;;;;;3.70;2.30;;;;;;;4.91;53.02;101463.15;105895;1306;24105;-64
2022/11/09 04:43:10;;;;;;;3.20;1.90;;;;;;;4.89;53.05;101464.15;105857;1305;21964;-65
2022/11/09 04:45:37;;;;;;;2.40;1.60;;;;;;;4.89;52.93;101464.49;106406;1306;21963;-64
2022/11/09 04:48:04;;;;;;;4.10;1.90;;;;;;;4.87;52.93;101464.59;105977;1305;21961;-65
2022/11/09 04:50:30;;;;;;;6.90;2.40;;;;;;;4.86;52.84;101463.54;105819;1306;21972;-63
2022/11/09 04:53:10;;;;;;;3.90;1.90;;;;;;;4.87;53.09;101466.86;105974;1306;23107;-63
2022/11/09 04:55:36;;;;;;;3.90;1.90;;;;;;;4.85;52.87;101467.69;105965;1306;21966;-64
2022/11/09 04:58:02;;;;;;;3.40;2.00;;;;;;;4.85;52.86;101472.73;105949;1298;22760;-63
2022/11/09 05:00:28;;;;;;;5.20;2.40;;;;;;;4.89;53.16;101474.41;105940;1305;21961;-64
2022/11/09 05:02:53;;;;;;;5.20;2.30;;;;;;;4.95;53.15;101477.88;105943;1304;21994;-65
2022/11/09 05:05:19;;;;;;;5.00;2.50;;;;;;;5.00;53.05;101481.14;106001;1306;22007;-65
2022/11/09 05:07:45;;;;;;;7.10;3.60;;;;;;;5.02;53.07;101483.14;105924;1306;21993;-64
2022/11/09 05:10:10;;;;;;;7.50;3.30;;;;;;;5.03;53.04;101482.11;105960;1305;21956;-63
2022/11/09 05:12:36;;;;;;;10.10;3.70;;;;;;;5.05;53.09;101485.98;105950;1304;21972;-61
2022/11/09 05:15:10;;;;;;;9.70;4.20;;;;;;;5.09;53.04;101489.20;105225;1306;1002656;-63
2022/11/09 05:17:36;;;;;;;8.50;3.10;;;;;;;5.13;53.25;101488.45;105918;1305;22002;-63
2022/11/09 05:20:04;;;;;;;7.30;3.40;;;;;;;5.23;53.31;101488.23;105953;1305;21985;-63
2022/11/09 05:25:17;;;;;;;8.50;2.80;;;;;;;5.46;53.42;101487.26;105948;1305;21978;-62
2022/11/09 05:27:43;;;;;;;9.20;2.70;;;;;;;5.57;53.37;101487.73;105967;1306;21965;-62
2022/11/09 05:30:09;;;;;;;8.60;2.60;;;;;;;5.69;53.83;101494.30;105949;1304;21982;-64
2022/11/09 05:32:38;;;;;;;10.00;3.30;;;;;;;5.83;53.53;101498.83;106116;1304;22027;-62
2022/11/09 05:35:04;;;;;;;6.90;3.10;;;;;;;5.95;53.54;101501.05;106066;1306;22009;-64
2022/11/09 05:37:30;;;;;;;7.70;3.50;;;;;;;6.07;53.65;101504.88;106088;1306;21960;-64
2022/11/09 05:39:56;;;;;;;9.60;3.50;;;;;;;6.20;53.50;101505.86;106216;1304;21969;-63
2022/11/09 05:42:23;;;;;;;10.70;4.40;;;;;;;6.31;53.64;101510.13;105991;1304;22051;-61
2022/11/09 05:44:49;;;;;;;11.10;3.70;;;;;;;6.41;53.64;101513.84;106044;1306;21968;-64
2022/11/09 05:47:15;;;;;;;6.90;3.60;;;;;;;6.52;53.34;101518.27;106046;1298;21967;-62
2022/11/09 05:49:42;;;;;;;7.80;3.30;;;;;;;6.61;53.56;101521.27;105946;1304;21958;-63
2022/11/09 05:52:08;;;;;;;5.20;2.90;;;;;;;6.70;53.41;101527.20;105872;1304;21981;-66
2022/11/09 05:54:33;;;;;;;4.90;2.90;;;;;;;6.77;53.27;101528.59;105882;1304;21961;-62
2022/11/09 05:57:00;;;;;;;3.40;2.00;;;;;;;6.83;53.24;101535.88;105105;1306;1002825;-67
2022/11/09 05:59:26;;;;;;;8.50;4.00;;;;;;;6.88;53.13;101541.39;105863;1306;21953;-66
2022/11/09 06:01:52;;;;;;;7.00;3.80;;;;;;;6.92;52.90;101545.16;106018;1306;23713;-67
2022/11/09 06:04:17;;;;;;;4.20;3.00;;;;;;;7.00;52.99;101547.77;105107;1306;1002296;-66
2022/11/09 06:06:43;;;;;;;5.50;3.20;;;;;;;7.04;52.88;101543.48;105938;1306;21964;-62
2022/11/09 06:09:09;;;;;;;5.10;3.50;;;;;;;7.08;53.08;101546.17;106048;1306;21959;-67
2022/11/09 06:11:35;;;;;;;4.10;3.00;;;;;;;7.15;53.26;101545.98;106013;1306;21964;-62
2022/11/09 06:14:01;;;;;;;5.40;3.50;;;;;;;7.21;53.27;101547.84;105940;1306;21970;-62
2022/11/09 06:16:29;;;;;;;4.80;3.10;;;;;;;7.25;53.24;101541.98;105958;1306;21982;-61
2022/11/09 06:18:56;;;;;;;6.20;3.10;;;;;;;7.32;53.11;101543.16;106006;1306;22008;-67
2022/11/09 06:21:24;;;;;;;4.20;2.60;;;;;;;7.44;53.49;101544.45;106058;1301;21963;-62
2022/11/09 06:23:56;;;;;;;7.20;2.70;;;;;;;7.58;53.55;101536.67;106064;1306;21985;-66
2022/11/09 06:26:22;;;;;;;12.30;3.10;;;;;;;7.73;53.67;101537.64;106060;1301;23353;-66
2022/11/09 06:28:48;;;;;;;7.50;2.80;;;;;;;7.89;53.70;101544.73;106039;1306;21959;-66
2022/11/09 06:31:16;;;;;;;5.60;2.80;;;;;;;8.02;53.71;101544.44;104478;1306;1002651;-63
2022/11/09 06:33:43;;;;;;;6.70;2.30;;;;;;;8.13;53.47;101544.61;105780;1306;327763;-63
2022/11/09 06:36:10;;;;;;;4.90;2.00;;;;;;;8.20;53.48;101550.50;105947;1300;21952;-63
2022/11/09 06:38:36;;;;;;;6.30;3.10;;;;;;;8.25;53.34;101550.92;106056;1301;21962;-63
2022/11/09 06:41:02;;;;;;;5.10;2.50;;;;;;;8.31;53.57;101551.55;105952;1306;21969;-64
2022/11/09 06:43:28;;;;;;;3.60;2.10;;;;;;;8.40;53.98;101547.48;105967;1306;21973;-65
2022/11/09 06:45:55;;;;;;;4.30;2.10;;;;;;;8.54;54.55;101545.47;105985;1306;21976;-63
2022/11/09 06:48:21;;;;;;;3.90;1.90;;;;;;;8.68;54.22;101539.55;105987;1306;21958;-63
2022/11/09 06:50:48;;;;;;;3.90;2.20;;;;;;;8.81;54.32;101540.76;106084;1304;21972;-64
2022/11/09 06:53:15;;;;;;;7.00;2.30;;;;;;;8.89;54.27;101541.57;105923;1306;21973;-63
2022/11/09 06:55:42;;;;;;;7.90;2.60;;;;;;;8.99;54.34;101537.85;105975;1305;23612;-64
2022/11/09 06:58:09;;;;;;;5.60;3.10;;;;;;;9.12;54.51;101538.36;105957;1300;21960;-66
2022/11/09 07:00:36;;;;;;;3.00;1.90;;;;;;;9.24;54.65;101536.23;105964;1306;22963;-63
2022/11/09 07:03:01;;;;;;;4.40;1.70;;;;;;;9.40;55.02;101534.67;105811;1304;21967;-65
2022/11/09 07:05:28;;;;;;;4.70;2.00;;;;;;;9.58;55.17;101532.41;107878;1305;21782;-64
2022/11/09 07:07:55;;;;;;;3.90;2.10;;;;;;;9.82;55.55;101533.15;106706;1305;24339;-66
2022/11/09 07:10:21;;;;;;;3.80;1.60;;;;;;;10.03;55.52;101528.25;105820;1304;23706;-61
2022/11/09 07:12:48;;;;;;;7.20;2.80;;;;;;;10.20;55.57;101527.16;105909;1304;21986;-62
2022/11/09 07:15:13;;;;;;;3.10;2.00;;;;;;;10.37;55.80;101525.71;105905;1304;21964;-65
2022/11/09 07:17:40;;;;;;;5.70;2.00;;;;;;;10.52;55.77;101526.19;105961;1301;21960;-65
2022/11/09 07:20:10;;;;;;;3.90;2.20;;;;;;;10.67;55.68;101528.72;106042;1306;22065;-62
2022/11/09 07:22:41;;;;;;;3.10;1.80;;;;;;;10.87;55.96;101530.94;106017;1306;21987;-62
2022/11/09 07:25:08;;;;;;;3.90;1.90;;;;;;;11.04;55.68;101530.84;106009;1306;21960;-64
2022/11/09 07:27:34;;;;;;;4.10;2.10;;;;;;;11.20;55.65;101527.73;105924;1306;21959;-66
2022/11/09 07:30:01;;;;;;;5.00;2.20;;;;;;;11.35;55.54;101520.23;106019;1292;21951;-65
2022/11/09 07:32:26;;;;;;;5.30;2.60;;;;;;;11.50;55.73;101516.40;105979;1306;21957;-66
2022/11/09 07:34:52;;;;;;;5.30;3.00;;;;;;;11.70;55.83;101517.14;105997;1306;22005;-63
2022/11/09 07:37:18;;;;;;;8.00;3.50;;;;;;;11.93;55.98;101513.83;105716;1301;22010;-62
2022/11/09 07:39:45;;;;;;;9.00;3.70;;;;;;;12.17;56.13;101514.55;105891;1306;21969;-63
2022/11/09 07:42:11;;;;;;;7.10;4.10;;;;;;;12.42;56.23;101513.64;105965;1306;21974;-63
2022/11/09 07:44:38;;;;;;;8.20;3.90;;;;;;;12.67;56.08;101507.94;105974;1306;21978;-63
2022/11/09 07:47:03;;;;;;;6.30;3.60;;;;;;;12.90;56.04;101506.80;106102;1306;21988;-64
2022/11/09 07:49:29;;;;;;;7.40;4.60;;;;;;;13.12;55.96;101507.95;105940;1304;21974;-63
2022/11/09 07:51:55;;;;;;;6.90;4.00;;;;;;;13.35;55.45;101502.55;106076;1306;21962;-63
2022/11/09 07:54:21;;;;;;;7.00;4.30;;;;;;;13.52;55.41;101505.29;105919;1304;22005;-65
2022/11/09 07:56:46;;;;;;;7.30;4.60;;;;;;;13.75;55.51;101501.42;105995;1304;22005;-66
2022/11/09 07:59:13;;;;;;;11.10;5.50;;;;;;;14.01;55.30;101500.86;105957;1305;23984;-65
2022/11/09 08:01:38;;;;;;;9.50;4.90;;;;;;;14.23;54.99;101499.95;105978;1307;21960;-66
2022/11/09 08:04:05;;;;;;;8.40;5.60;;;;;;;14.44;54.84;101498.67;106168;1306;21965;-64
2022/11/09 08:06:30;;;;;;;8.40;5.40;;;;;;;14.59;54.36;101501.35;105954;1306;21953;-64
2022/11/09 08:08:59;;;;;;;10.70;5.00;;;;;;;14.65;53.85;101500.94;105967;1307;21973;-65
2022/11/09 08:11:25;;;;;;;9.60;4.90;;;;;;;14.68;53.84;101498.98;105969;1304;21960;-65
2022/11/09 08:13:51;;;;;;;12.70;5.20;;;;;;;14.81;54.26;101497.77;105785;1306;21966;-64
2022/11/09 08:16:17;;;;;;;10.60;5.80;;;;;;;15.00;53.90;101502.48;105845;1306;21964;-64
2022/11/09 08:18:43;;;;;;;9.60;5.30;;;;;;;15.10;53.58;101503.60;105968;1307;22001;-64
2022/11/09 08:21:09;;;;;;;25.70;5.80;;;;;;;15.18;53.64;101500.85;105988;1303;21976;-64
2022/11/09 08:23:36;;;;;;;21.80;6.00;;;;;;;15.29;53.28;101498.22;106049;1306;22080;-65
2022/11/09 08:26:03;;;;;;;19.20;6.10;;;;;;;15.43;53.30;101496.60;106030;1303;21958;-65
2022/11/09 08:28:29;;;;;;;34.60;7.70;;;;;;;15.63;53.58;101498.77;106119;1300;21979;-65
2022/11/09 08:31:01;;;;;;;17.70;5.90;;;;;;;15.86;53.36;101500.38;105999;1308;21979;-68
2022/11/09 08:33:28;;;;;;;13.90;6.20;;;;;;;16.11;53.43;101499.10;105989;1302;22018;-69
2022/11/09 08:35:55;;;;;;;10.80;6.40;;;;;;;16.27;52.60;101498.10;105959;1308;21952;-68
2022/11/09 08:38:20;;;;;;;11.20;5.30;;;;;;;16.34;52.46;101494.42;105962;1308;21965;-63
2022/11/09 08:40:47;;;;;;;9.40;5.30;;;;;;;16.42;52.30;101491.80;105979;1300;21973;-62
2022/11/09 08:43:13;;;;;;;14.50;6.90;;;;;;;16.49;51.97;101493.09;106053;1302;23099;-69
2022/11/09 08:45:40;;;;;;;11.30;6.20;;;;;;;16.56;51.77;101488.34;105751;1304;21964;-62
2022/11/09 08:48:07;;;;;;;13.60;7.50;;;;;;;16.61;51.43;101486.65;106028;1301;21961;-64
2022/11/09 08:50:36;;;;;;;11.80;6.60;;;;;;;16.62;51.42;101487.86;106027;1302;23079;-62
2022/11/09 08:53:02;;;;;;;11.70;6.60;;;;;;;16.66;51.29;101486.36;106031;1303;22040;-67
2022/11/09 08:55:28;;;;;;;14.50;7.20;;;;;;;16.81;51.12;101490.15;106073;1307;22431;-67
2022/11/09 08:57:56;;;;;;;11.60;6.70;;;;;;;16.97;51.13;101490.73;105989;1307;21967;-64
2022/11/09 09:00:22;;;;;;;14.20;7.70;;;;;;;17.15;50.90;101486.27;105978;1308;21962;-64
2022/11/09 09:02:48;;;;;;;12.60;8.00;;;;;;;17.30;50.05;101482.20;106114;1302;21960;-64
2022/11/09 09:05:17;;;;;;;16.10;6.80;;;;;;;17.36;50.10;101482.63;106174;1302;21965;-63
2022/11/09 09:07:43;;;;;;;14.00;7.20;;;;;;;17.40;50.24;101478.44;106056;1308;21966;-64
2022/11/09 09:10:09;;;;;;;13.70;6.80;;;;;;;17.48;49.83;101471.69;105880;1306;24152;-66
2022/11/09 09:12:36;;;;;;;14.90;7.30;;;;;;;17.63;49.82;101471.51;106272;1307;22009;-67
2022/11/09 09:15:02;;;;;;;17.40;7.40;;;;;;;17.80;49.69;101468.80;106066;1301;22008;-65
2022/11/09 09:17:28;;;;;;;14.10;7.20;;;;;;;17.88;49.62;101465.74;105980;1307;21962;-65
2022/11/09 09:19:55;;;;;;;17.70;8.20;;;;;;;18.01;49.48;101465.98;106044;1304;22010;-66
2022/11/09 09:22:21;;;;;;;17.90;7.50;;;;;;;18.11;49.19;101462.15;106058;1304;21972;-65
2022/11/09 09:24:47;;;;;;;10.30;7.40;;;;;;;18.16;48.63;101457.77;106115;1302;21961;-67
2022/11/09 09:27:14;;;;;;;9.00;6.70;;;;;;;18.18;48.21;101458.77;107212;1304;21956;-67
2022/11/09 09:29:39;;;;;;;12.70;6.70;;;;;;;18.17;48.67;101458.45;105970;1308;21964;-65
2022/11/09 09:32:05;;;;;;;12.70;7.60;;;;;;;18.30;48.70;101457.23;105984;1304;21938;-65
2022/11/09 09:34:31;;;;;;;13.70;7.80;;;;;;;18.49;48.35;101456.15;105986;1304;21987;-65
2022/11/09 09:36:57;;;;;;;11.40;7.60;;;;;;;18.64;48.23;101456.10;106013;1303;21971;-66
2022/11/09 09:39:23;;;;;;;12.20;7.20;;;;;;;18.72;47.82;101457.98;105968;1304;22001;-65
2022/11/09 09:41:54;;;;;;;13.50;7.70;;;;;;;18.71;47.66;101456.59;106129;1304;21965;-66
2022/11/09 09:44:29;;;;;;;18.50;7.70;;;;;;;18.80;48.02;101451.54;106133;1304;21963;-64
2022/11/09 09:46:57;;;;;;;13.50;8.70;;;;;;;18.97;47.78;101449.11;106104;1304;21974;-65
2022/11/09 09:49:28;;;;;;;11.40;7.70;;;;;;;19.04;47.00;101447.30;106069;1304;21991;-67
2022/11/09 09:52:00;;;;;;;11.00;7.60;;;;;;;19.07;47.26;101445.09;106134;1304;21960;-67
2022/11/09 09:54:29;;;;;;;12.10;6.90;;;;;;;19.14;46.89;101446.83;106215;1304;21991;-66
2022/11/09 09:56:57;;;;;;;11.40;7.30;;;;;;;19.26;46.45;101447.30;105806;1304;21970;-66
2022/11/09 09:59:32;;;;;;;16.20;8.30;;;;;;;19.39;45.99;101447.10;105726;1306;21964;-68
2022/11/09 10:01:58;;;;;;;12.10;7.40;;;;;;;19.49;46.14;101443.92;106004;1304;21968;-63
2022/11/09 10:04:33;;;;;;;14.20;8.00;;;;;;;19.67;47.00;101443.86;105950;1305;21966;-67
2022/11/09 10:07:06;;;;;;;14.60;7.40;;;;;;;19.96;46.46;101442.73;106595;1306;22012;-63
2022/11/09 10:09:54;;;;;;;11.60;7.50;;;;;;;20.14;46.00;101438.40;106733;1304;21960;-67
2022/11/09 10:12:43;;;;;;;13.60;7.50;;;;;;;20.11;45.52;101438.48;105957;1304;22008;-66
2022/11/09 10:15:26;;;;;;;15.40;7.20;;;;;;;20.12;45.34;101441.65;106023;1304;21966;-62
2022/11/09 10:18:14;;;;;;;9.60;6.90;;;;;;;20.19;44.81;101437.14;106069;1304;21988;-66
2022/11/09 10:20:45;;;;;;;12.40;7.10;;;;;;;20.19;44.74;101437.52;106010;1307;21972;-67
2022/11/09 10:23:35;;;;;;;10.60;6.60;;;;;;;20.19;44.64;101433.55;105976;1304;21981;-66
2022/11/09 10:26:36;;;;;;;11.10;7.00;;;;;;;20.15;44.25;101430.84;106000;1304;21966;-62
2022/11/09 10:29:18;;;;;;;9.40;6.80;;;;;;;20.14;43.62;101430.17;105776;1306;22427;-68
2022/11/09 10:31:46;;;;;;;14.70;6.30;;;;;;;20.09;43.88;101430.20;106068;1301;21960;-66
2022/11/09 10:34:18;;;;;;;12.20;7.30;;;;;;;20.18;43.43;101428.45;106145;1304;21970;-66
2022/11/09 10:36:55;;;;;;;14.20;6.60;;;;;;;20.18;42.89;101423.80;105973;1305;21965;-66
2022/11/09 10:39:22;;;;;;;11.60;6.70;;;;;;;20.14;43.57;101421.10;105961;1305;21975;-65
2022/11/09 10:41:48;;;;;;;10.60;5.90;;;;;;;20.15;42.49;101420.69;105950;1302;21968;-68
2022/11/09 10:44:15;;;;;;;8.20;5.40;;;;;;;20.06;42.61;101419.58;106025;1304;23623;-68
2022/11/09 10:47:21;;;;;;;10.00;6.20;;;;;;;20.05;43.07;101419.65;106015;1301;21968;-62
2022/11/09 10:50:06;;;;;;;10.10;5.80;;;;;;;19.98;43.12;101413.48;105447;1315;21996;-68
2022/11/09 10:52:43;;;;;;;13.70;7.00;;;;;;;19.97;42.95;101411.53;105601;1312;22022;-63
2022/11/09 10:55:26;;;;;;;11.30;6.10;;;;;;;20.21;44.07;101408.02;105843;1307;22103;-62
2022/11/09 10:57:54;;;;;;;11.70;7.50;;;;;;;20.50;43.02;101405.17;105461;1304;1002306;-63
2022/11/09 11:00:21;;;;;;;11.40;7.10;;;;;;;20.58;42.85;101403.07;106151;1304;21964;-67
2022/11/09 11:02:49;;;;;;;13.10;7.40;;;;;;;20.73;43.10;101401.63;106116;1304;22118;-62
2022/11/09 11:05:18;;;;;;;21.60;7.00;;;;;;;20.85;42.24;101396.23;106125;1304;21990;-67
2022/11/09 11:07:44;;;;;;;12.70;7.20;;;;;;;20.83;41.44;101395.77;106186;1305;21962;-64
2022/11/09 11:10:20;;;;;;;10.80;6.80;;;;;;;20.74;42.60;101395.89;106047;1306;21973;-64
2022/11/09 11:13:01;;;;;;;12.20;7.10;;;;;;;20.75;42.67;101392.82;106172;1305;21975;-72
2022/11/09 11:15:36;;;;;;;10.70;6.60;;;;;;;20.85;42.60;101389.24;105950;1304;21961;-67
2022/11/09 11:18:04;;;;;;;10.50;6.10;;;;;;;20.87;42.67;101388.83;106073;1304;21988;-62
2022/11/09 11:20:36;;;;;;;8.90;6.30;;;;;;;20.96;42.70;101383.29;106229;1304;22159;-67
2022/11/09 11:23:12;;;;;;;13.70;6.90;;;;;;;21.17;42.37;101382.98;106181;1304;21972;-66